Time;durP1;ratioP1;P1;durP2;ratioP2;P2;SDS_P1;SDS_P2;PMS_P1;PMS_P2;Temp;Humidity;BMP_temperature;BMP_pressure;BME280_temperature;BME280_humidity;BME280_pressure;Samples;Min_cycle;Max_cycle;Signal;HPM_P1;HPM_P2
2024/01/14 00:01:43;;;;;;;15.90;1.98;;;;;;;2.04;100.00;100408.88;4944090;29;20205;-46
2024/01/14 00:04:08;;;;;;;16.75;2.83;;;;;;;2.06;100.00;100395.66;4943524;29;20277;-44
2024/01/14 00:06:34;;;;;;;8.07;1.98;;;;;;;2.04;100.00;100400.09;4924331;29;20576;-43
2024/01/14 00:08:59;;;;;;;9.90;1.83;;;;;;;1.97;100.00;100386.06;4945621;29;20523;-42
2024/01/14 00:11:26;;;;;;;14.82;1.80;;;;;;;1.97;100.00;100395.78;4931790;29;20210;-44
2024/01/14 00:13:51;;;;;;;13.63;2.10;;;;;;;1.96;100.00;100394.88;4939445;28;20218;-44
2024/01/14 00:16:17;;;;;;;12.90;2.17;;;;;;;1.93;100.00;100394.91;4944105;29;20183;-44
2024/01/14 00:18:42;;;;;;;10.95;2.03;;;;;;;1.96;100.00;100389.59;4943221;29;20189;-43
2024/01/14 00:21:08;;;;;;;14.52;2.17;;;;;;;1.97;100.00;100383.44;4944845;29;20177;-41
2024/01/14 00:23:34;;;;;;;8.57;1.85;;;;;;;1.99;100.00;100386.03;4949738;29;20183;-44
2024/01/14 00:26:00;;;;;;;15.05;2.30;;;;;;;1.97;100.00;100382.56;4942597;28;20584;-46
2024/01/14 00:28:25;;;;;;;11.55;1.80;;;;;;;1.92;100.00;100366.72;4942678;29;20198;-45
2024/01/14 00:30:51;;;;;;;18.50;2.67;;;;;;;1.94;100.00;100378.16;4943712;29;21096;-45
2024/01/14 00:33:16;;;;;;;11.27;2.05;;;;;;;1.97;100.00;100372.00;4941432;29;20186;-45
2024/01/14 00:35:42;;;;;;;12.70;2.03;;;;;;;1.91;100.00;100377.34;4941048;28;20261;-44
2024/01/14 00:38:07;;;;;;;6.75;1.60;;;;;;;1.93;100.00;100371.13;4945697;29;20198;-47
2024/01/14 00:40:34;;;;;;;10.45;2.42;;;;;;;1.80;100.00;100357.19;4941997;29;20258;-46
2024/01/14 00:42:59;;;;;;;12.35;1.80;;;;;;;1.80;100.00;100351.03;4942616;29;20625;-47
2024/01/14 00:45:25;;;;;;;13.50;2.15;;;;;;;1.83;100.00;100349.22;4944370;28;20257;-46
2024/01/14 00:47:50;;;;;;;10.90;1.58;;;;;;;1.74;100.00;100353.72;4926847;29;20167;-46
2024/01/14 00:50:16;;;;;;;11.48;2.30;;;;;;;1.75;100.00;100364.28;4938656;29;20202;-45
2024/01/14 00:52:41;;;;;;;12.48;2.05;;;;;;;1.67;100.00;100362.59;4941478;29;20191;-45
2024/01/14 00:55:08;;;;;;;11.13;1.98;;;;;;;1.72;100.00;100361.66;4937456;29;20206;-47
2024/01/14 00:57:34;;;;;;;8.70;1.73;;;;;;;1.55;100.00;100361.81;4943976;29;20167;-47
2024/01/14 01:00:00;;;;;;;12.23;1.73;;;;;;;1.53;100.00;100354.78;4944847;29;20286;-43
2024/01/14 01:02:25;;;;;;;4.00;1.30;;;;;;;1.43;100.00;100357.50;4945519;29;20176;-45
2024/01/14 01:04:51;;;;;;;13.15;2.03;;;;;;;1.47;100.00;100346.94;4942944;29;20190;-46
2024/01/14 01:07:16;;;;;;;13.63;2.15;;;;;;;1.47;100.00;100347.81;4930970;29;20237;-46
2024/01/14 01:09:42;;;;;;;11.32;1.85;;;;;;;1.51;100.00;100349.53;4945266;29;20178;-45
2024/01/14 01:12:07;;;;;;;8.90;2.08;;;;;;;1.42;100.00;100354.88;4942224;29;20555;-46
2024/01/14 01:14:33;;;;;;;5.15;1.20;;;;;;;1.43;100.00;100359.28;4942865;29;20209;-46
2024/01/14 01:16:59;;;;;;;6.43;2.17;;;;;;;1.40;100.00;100349.63;4941148;29;20705;-45
2024/01/14 01:19:24;;;;;;;9.20;1.70;;;;;;;1.41;100.00;100340.81;4944463;29;20697;-44
2024/01/14 01:21:51;;;;;;;7.88;1.83;;;;;;;1.42;100.00;100341.69;4943666;29;20595;-45
2024/01/14 01:24:16;;;;;;;8.68;1.85;;;;;;;1.36;100.00;100341.75;4944581;28;20222;-46
2024/01/14 01:26:42;;;;;;;4.38;0.90;;;;;;;1.38;100.00;100339.97;4928914;29;20190;-45
2024/01/14 01:29:08;;;;;;;5.18;1.70;;;;;;;1.48;100.00;100335.47;4946199;28;20217;-45
2024/01/14 01:31:33;;;;;;;6.63;1.67;;;;;;;1.38;100.00;100335.56;4947662;29;20195;-45
2024/01/14 01:33:59;;;;;;;7.75;1.60;;;;;;;1.37;100.00;100338.22;4945625;29;20216;-45
2024/01/14 01:36:25;;;;;;;7.63;1.02;;;;;;;1.28;100.00;100336.53;4941957;29;20176;-46
2024/01/14 01:38:50;;;;;;;7.30;1.55;;;;;;;1.23;100.00;100326.00;4932189;29;20172;-45
2024/01/14 01:41:16;;;;;;;8.85;1.70;;;;;;;1.14;100.00;100334.00;4947177;29;20185;-45
2024/01/14 01:43:41;;;;;;;11.98;1.98;;;;;;;1.17;100.00;100326.06;4945499;29;20183;-46
2024/01/14 01:46:08;;;;;;;8.85;1.80;;;;;;;1.16;100.00;100319.03;4941856;29;20211;-46
2024/01/14 01:48:33;;;;;;;3.83;1.08;;;;;;;1.11;100.00;100315.53;4942913;29;20176;-46
2024/01/14 01:50:59;;;;;;;3.45;1.13;;;;;;;1.19;100.00;100318.13;4942275;29;20195;-47
2024/01/14 01:53:25;;;;;;;9.20;1.42;;;;;;;1.13;100.00;100332.25;4934373;29;20186;-44
2024/01/14 01:55:53;;;;;;;6.22;1.90;;;;;;;1.06;100.00;100314.72;4929149;29;20841;-45
2024/01/14 01:58:19;;;;;;;4.68;1.20;;;;;;;1.04;100.00;100316.50;4948871;29;20218;-46
2024/01/14 02:00:45;;;;;;;6.43;1.42;;;;;;;1.10;100.00;100315.59;4946488;29;20649;-46
2024/01/14 02:03:11;;;;;;;11.55;1.73;;;;;;;1.16;100.00;100321.69;4942834;29;20182;-45
2024/01/14 02:05:42;;;;;;;7.65;1.60;;;;;;;1.14;100.00;100312.91;4928708;29;20218;-44
2024/01/14 02:08:08;;;;;;;11.48;1.67;;;;;;;1.05;100.00;100320.00;4941126;29;20205;-44
2024/01/14 02:10:33;;;;;;;11.52;1.88;;;;;;;1.07;100.00;100320.84;4946358;29;20294;-46
2024/01/14 02:12:59;;;;;;;12.02;1.42;;;;;;;1.07;100.00;100310.31;4938368;29;20199;-45
2024/01/14 02:15:24;;;;;;;12.25;1.83;;;;;;;0.99;100.00;100303.34;4942091;29;20199;-45
2024/01/14 02:17:50;;;;;;;5.50;1.70;;;;;;;0.98;100.00;100309.50;4942859;29;20646;-46
2024/01/14 02:20:16;;;;;;;6.80;1.80;;;;;;;1.02;100.00;100292.75;4940134;29;20536;-46
2024/01/14 02:22:44;;;;;;;13.13;2.03;;;;;;;1.05;100.00;100298.88;4943610;29;20195;-45
2024/01/14 02:25:11;;;;;;;9.20;2.08;;;;;;;1.10;100.00;100297.97;4944331;29;20202;-45
2024/01/14 02:27:37;;;;;;;11.20;1.92;;;;;;;1.14;100.00;100289.16;4942680;29;20712;-46
2024/01/14 02:30:03;;;;;;;12.27;2.60;;;;;;;1.13;100.00;100282.09;4941621;29;20191;-44
2024/01/14 02:32:29;;;;;;;8.40;2.03;;;;;;;1.11;100.00;100290.94;4943938;29;20693;-45
2024/01/14 02:34:54;;;;;;;14.20;2.10;;;;;;;1.09;100.00;100279.50;4944454;28;20297;-47
2024/01/14 02:37:20;;;;;;;14.52;2.70;;;;;;;1.08;100.00;100281.28;4942359;29;20269;-46
2024/01/14 02:39:45;;;;;;;9.20;1.92;;;;;;;1.08;100.00;100276.00;4948919;29;20641;-44
2024/01/14 02:42:11;;;;;;;4.45;1.38;;;;;;;1.08;100.00;100277.78;4943010;29;20249;-43
2024/01/14 02:44:36;;;;;;;11.13;2.00;;;;;;;1.05;100.00;100268.13;4940910;29;20214;-45
2024/01/14 02:47:02;;;;;;;12.60;1.55;;;;;;;1.02;100.00;100274.28;4941806;29;20826;-47
2024/01/14 02:49:28;;;;;;;10.50;2.35;;;;;;;1.03;100.00;100268.13;4938638;29;20192;-43
2024/01/14 02:51:53;;;;;;;8.65;1.60;;;;;;;1.01;100.00;100266.41;4942945;29;20195;-44
2024/01/14 02:54:19;;;;;;;6.78;1.30;;;;;;;1.00;100.00;100269.91;4924922;29;20236;-42
2024/01/14 02:56:44;;;;;;;9.65;1.58;;;;;;;1.02;100.00;100260.22;4940781;29;20210;-43
2024/01/14 02:59:10;;;;;;;11.65;1.90;;;;;;;1.06;100.00;100253.19;4924831;29;20309;-45
2024/01/14 03:01:44;;;;;;;14.32;2.90;;;;;;;1.10;100.00;100261.03;4941329;29;20168;-44
2024/01/14 03:04:09;;;;;;;8.50;1.67;;;;;;;1.01;100.00;100276.97;4927215;29;20206;-45
2024/01/14 03:06:35;;;;;;;11.90;2.00;;;;;;;0.99;100.00;100273.47;4925791;29;20190;-42
2024/01/14 03:09:00;;;;;;;13.13;1.75;;;;;;;1.00;100.00;100268.16;4944454;29;20201;-45
2024/01/14 03:11:26;;;;;;;7.90;1.58;;;;;;;1.01;100.00;100267.28;4924787;29;20300;-48
2024/01/14 03:13:51;;;;;;;5.95;1.42;;;;;;;1.00;100.00;100267.28;4936563;28;20235;-46
2024/01/14 03:16:18;;;;;;;9.85;1.58;;;;;;;1.00;100.00;100270.78;4941222;29;20186;-46
2024/01/14 03:18:44;;;;;;;8.38;1.42;;;;;;;0.94;100.00;100278.78;4938719;29;20313;-46
2024/01/14 03:21:19;;;;;;;11.90;1.77;;;;;;;0.90;100.00;100268.25;4944420;29;20366;-45
2024/01/14 03:23:45;;;;;;;12.63;2.00;;;;;;;0.84;100.00;100268.31;4922608;28;20191;-46
2024/01/14 03:26:11;;;;;;;9.68;1.65;;;;;;;0.92;100.00;100262.09;4938220;29;20187;-45
2024/01/14 03:28:37;;;;;;;12.82;1.85;;;;;;;0.82;100.00;100260.41;4942870;29;20181;-46
2024/01/14 03:31:03;;;;;;;9.80;2.00;;;;;;;0.93;100.00;100270.84;4943207;29;20230;-45
2024/01/14 03:33:28;;;;;;;14.52;1.98;;;;;;;0.93;100.00;100263.81;4937043;29;20710;-46
2024/01/14 03:35:54;;;;;;;8.48;1.77;;;;;;;0.92;100.00;100264.72;4941961;28;20302;-47
2024/01/14 03:38:19;;;;;;;8.00;2.08;;;;;;;0.95;100.00;100261.19;4942462;29;20560;-46
2024/01/14 03:40:46;;;;;;;7.75;1.80;;;;;;;0.87;100.00;100263.84;4943656;29;20602;-46
2024/01/14 03:43:11;;;;;;;6.53;1.95;;;;;;;0.90;100.00;100261.22;4942031;29;20241;-47
2024/01/14 03:45:37;;;;;;;7.10;1.77;;;;;;;0.90;100.00;100260.34;4923465;29;20665;-45
2024/01/14 03:48:03;;;;;;;7.82;1.70;;;;;;;0.86;100.00;100261.25;4920434;28;20266;-45
2024/01/14 03:50:29;;;;;;;7.75;1.35;;;;;;;0.91;100.00;100273.50;4940227;29;20301;-45
2024/01/14 03:52:55;;;;;;;7.88;1.58;;;;;;;0.86;100.00;100259.47;4937405;29;20327;-44
2024/01/14 03:55:20;;;;;;;9.65;1.20;;;;;;;0.79;100.00;100268.34;4941968;29;20226;-46
2024/01/14 03:57:46;;;;;;;4.72;1.67;;;;;;;0.80;100.00;100268.31;4938776;29;20221;-47
2024/01/14 04:00:12;;;;;;;8.32;1.50;;;;;;;0.85;100.00;100254.22;4939944;29;20186;-46
2024/01/14 04:02:38;;;;;;;10.05;1.80;;;;;;;0.78;100.00;100253.38;4941835;29;20242;-46
2024/01/14 04:05:04;;;;;;;10.98;2.00;;;;;;;0.75;100.00;100253.41;4941060;28;20641;-44
2024/01/14 04:07:30;;;;;;;13.57;1.90;;;;;;;0.80;100.00;100256.88;4937943;29;20629;-45
2024/01/14 04:09:55;;;;;;;14.82;2.60;;;;;;;0.83;100.00;100254.22;4939935;29;20255;-46
2024/01/14 04:12:21;;;;;;;12.48;2.10;;;;;;;0.84;100.00;100252.47;4922211;29;20241;-45
2024/01/14 04:14:47;;;;;;;13.80;2.65;;;;;;;0.79;100.00;100245.47;4944595;28;20246;-47
2024/01/14 04:17:12;;;;;;;12.27;1.92;;;;;;;0.79;100.00;100252.53;4944078;29;20199;-45
2024/01/14 04:19:38;;;;;;;7.88;1.55;;;;;;;0.83;100.00;100248.94;4941780;29;20194;-47
2024/01/14 04:22:04;;;;;;;9.93;1.80;;;;;;;0.79;100.00;100249.88;4938272;29;20601;-46
2024/01/14 04:24:29;;;;;;;6.47;1.30;;;;;;;0.79;100.00;100248.13;4940549;28;20293;-43
2024/01/14 04:26:55;;;;;;;8.73;1.60;;;;;;;0.78;100.00;100241.06;4941264;29;20274;-46
2024/01/14 04:29:20;;;;;;;10.93;1.67;;;;;;;0.75;100.00;100241.09;4941022;29;20572;-45
2024/01/14 04:31:46;;;;;;;16.83;1.98;;;;;;;0.74;100.00;100241.09;4942571;29;20206;-47
2024/01/14 04:34:11;;;;;;;10.82;1.67;;;;;;;0.73;100.00;100237.59;4923582;29;20282;-46
2024/01/14 04:36:37;;;;;;;9.70;1.52;;;;;;;0.79;100.00;100240.19;4942078;29;20218;-45
2024/01/14 04:39:03;;;;;;;10.07;1.65;;;;;;;0.72;100.00;100241.16;4940410;29;20198;-45
2024/01/14 04:41:28;;;;;;;9.57;1.70;;;;;;;0.67;100.00;100234.16;4939212;29;20183;-45
2024/01/14 04:43:54;;;;;;;9.20;1.75;;;;;;;0.65;100.00;100233.28;4942688;29;20179;-47
2024/01/14 04:46:20;;;;;;;13.75;1.88;;;;;;;0.64;100.00;100239.44;4941239;29;20182;-46
2024/01/14 04:48:45;;;;;;;8.48;1.40;;;;;;;0.66;100.00;100235.91;4923595;29;20187;-46
2024/01/14 04:51:11;;;;;;;7.15;1.88;;;;;;;0.68;100.00;100239.41;4942125;29;20282;-46
2024/01/14 04:53:36;;;;;;;9.80;1.67;;;;;;;0.67;100.00;100242.91;4940122;29;20666;-46
2024/01/14 04:56:05;;;;;;;15.23;1.70;;;;;;;0.66;100.00;100237.69;4940016;29;20194;-46
2024/01/14 04:58:31;;;;;;;5.57;1.80;;;;;;;0.68;100.00;100249.97;4942018;29;20611;-47
2024/01/14 05:00:57;;;;;;;15.88;1.92;;;;;;;0.64;100.00;100240.31;4941239;28;20205;-46
2024/01/14 05:03:22;;;;;;;10.73;1.55;;;;;;;0.67;100.00;100242.06;4909691;29;20230;-45
2024/01/14 05:05:48;;;;;;;10.38;1.92;;;;;;;0.69;100.00;100241.16;4946293;28;20672;-45
2024/01/14 05:08:13;;;;;;;8.75;1.80;;;;;;;0.68;100.00;100247.31;4946544;29;20195;-45
2024/01/14 05:10:39;;;;;;;13.88;2.10;;;;;;;0.76;100.00;100256.03;4944842;29;20297;-46
2024/01/14 05:13:04;;;;;;;9.68;1.55;;;;;;;0.81;100.00;100243.69;4928819;29;20187;-46
2024/01/14 05:15:30;;;;;;;9.10;2.08;;;;;;;0.80;100.00;100249.84;4948905;28;20213;-47
2024/01/14 05:17:55;;;;;;;15.23;1.83;;;;;;;0.80;100.00;100249.84;4928410;29;20182;-47
2024/01/14 05:20:21;;;;;;;8.27;1.45;;;;;;;0.84;100.00;100248.06;4946308;29;20545;-46
2024/01/14 05:22:47;;;;;;;8.50;1.25;;;;;;;0.85;100.00;100247.16;4944243;29;20194;-46
2024/01/14 05:25:13;;;;;;;12.57;1.80;;;;;;;0.86;100.00;100250.72;4997031;23;20229;-41
2024/01/14 05:27:38;;;;;;;8.52;1.73;;;;;;;0.87;100.00;100240.13;4971420;28;20280;-42
2024/01/14 05:30:04;;;;;;;10.50;1.58;;;;;;;0.79;100.00;100237.56;4977175;28;20197;-43
2024/01/14 05:32:29;;;;;;;10.55;1.55;;;;;;;0.82;100.00;100241.94;4963095;28;20206;-43
2024/01/14 05:34:55;;;;;;;12.13;1.70;;;;;;;0.85;100.00;100241.91;4970686;28;20206;-43
2024/01/14 05:37:21;;;;;;;12.35;1.38;;;;;;;0.90;100.00;100244.53;4967339;28;20186;-43
2024/01/14 05:39:46;;;;;;;15.48;1.75;;;;;;;0.98;100.00;100238.31;4976151;28;20178;-41
2024/01/14 05:42:12;;;;;;;13.13;1.83;;;;;;;1.01;100.00;100248.81;4976951;28;20219;-42
2024/01/14 05:44:37;;;;;;;11.88;2.08;;;;;;;1.00;100.00;100235.63;4976230;28;20297;-41
2024/01/14 05:47:03;;;;;;;16.73;1.58;;;;;;;1.04;100.00;100245.25;4965556;28;20194;-44
2024/01/14 05:49:29;;;;;;;12.07;1.85;;;;;;;1.01;100.00;100234.75;4972302;28;20190;-43
2024/01/14 05:51:54;;;;;;;11.32;1.70;;;;;;;1.01;100.00;100242.66;4976058;28;20264;-45
2024/01/14 05:54:20;;;;;;;11.27;1.65;;;;;;;1.08;100.00;100232.94;4966149;28;20210;-42
2024/01/14 05:56:46;;;;;;;13.98;1.77;;;;;;;1.01;100.00;100222.44;4957569;28;20536;-41
2024/01/14 05:59:11;;;;;;;8.82;1.42;;;;;;;1.00;100.00;100222.44;4969482;28;20197;-43
2024/01/14 06:01:37;;;;;;;9.80;2.05;;;;;;;1.00;100.00;100227.72;4975318;28;20197;-43
2024/01/14 06:04:03;;;;;;;12.38;2.30;;;;;;;0.99;100.00;100233.88;4976518;28;20189;-42
2024/01/14 06:06:28;;;;;;;9.93;1.70;;;;;;;1.03;100.00;100232.97;4962712;28;20185;-43
2024/01/14 06:08:54;;;;;;;13.60;1.92;;;;;;;1.07;100.00;100229.41;4966639;28;20190;-42
2024/01/14 06:11:19;;;;;;;11.25;1.80;;;;;;;1.10;100.00;100234.66;4968599;28;20365;-43
2024/01/14 06:13:45;;;;;;;14.88;2.00;;;;;;;1.12;100.00;100219.69;4952071;28;20557;-45
2024/01/14 06:16:11;;;;;;;11.38;2.30;;;;;;;1.13;100.00;100224.06;4967543;28;20196;-43
2024/01/14 06:18:39;;;;;;;10.73;1.55;;;;;;;1.23;100.00;100220.47;4972331;28;20607;-42
2024/01/14 06:21:04;;;;;;;7.90;1.33;;;;;;;1.21;100.00;100224.88;4980760;28;20192;-44
2024/01/14 06:23:30;;;;;;;9.65;1.83;;;;;;;1.22;100.00;100210.81;4970824;28;20620;-42
2024/01/14 06:25:56;;;;;;;16.77;1.70;;;;;;;1.24;100.00;100208.13;4970588;28;20284;-40
2024/01/14 06:28:22;;;;;;;15.90;2.33;;;;;;;1.22;100.00;100205.53;4964282;28;20182;-42
2024/01/14 06:30:48;;;;;;;17.92;1.80;;;;;;;1.27;100.00;100207.22;4971371;28;20202;-43
2024/01/14 06:33:14;;;;;;;12.55;1.92;;;;;;;1.28;100.00;100214.28;4969987;28;20206;-42
2024/01/14 06:35:40;;;;;;;10.82;1.83;;;;;;;1.29;100.00;100213.38;4959882;28;20206;-44
2024/01/14 06:38:08;;;;;;;11.23;2.03;;;;;;;1.32;100.00;100216.00;4962852;28;20197;-42
2024/01/14 06:40:33;;;;;;;9.15;1.70;;;;;;;1.36;100.00;100217.72;4977437;28;20228;-41
2024/01/14 06:42:59;;;;;;;12.52;2.10;;;;;;;1.35;100.00;100214.16;4972219;28;20227;-44
2024/01/14 06:45:25;;;;;;;8.82;1.95;;;;;;;1.31;100.00;100204.56;4970722;28;20240;-45
2024/01/14 06:47:50;;;;;;;10.27;2.28;;;;;;;1.37;100.00;100199.19;4964348;28;20743;-42
2024/01/14 06:50:16;;;;;;;14.18;1.88;;;;;;;1.42;100.00;100207.97;4964643;28;20719;-43
2024/01/14 06:52:42;;;;;;;17.45;2.80;;;;;;;1.44;100.00;100205.28;4976376;28;20234;-41
2024/01/14 06:55:08;;;;;;;9.48;2.15;;;;;;;1.42;100.00;100214.97;4974043;28;20209;-41
2024/01/14 06:57:34;;;;;;;12.13;2.53;;;;;;;1.42;100.00;100207.97;4964865;28;20186;-43
2024/01/14 07:00:00;;;;;;;13.88;1.92;;;;;;;1.33;100.00;100204.53;4973430;28;20186;-42
2024/01/14 07:02:26;;;;;;;29.63;2.92;;;;;;;1.37;100.00;100196.56;4948144;28;20251;-42
2024/01/14 07:04:52;;;;;;;14.55;2.63;;;;;;;1.33;100.00;100200.13;4968742;28;20211;-42
2024/01/14 07:07:18;;;;;;;12.00;1.98;;;;;;;1.34;100.00;100190.47;4963994;28;20274;-43
2024/01/14 07:09:43;;;;;;;9.63;1.70;;;;;;;1.24;100.00;100202.84;4962149;28;20175;-43
2024/01/14 07:12:09;;;;;;;23.52;3.92;;;;;;;1.32;100.00;100194.88;4971007;28;20584;-41
2024/01/14 07:14:35;;;;;;;18.13;2.50;;;;;;;1.24;100.00;100193.16;4957140;28;20221;-41
2024/01/14 07:17:00;;;;;;;12.50;1.90;;;;;;;1.28;100.00;100193.16;4968306;28;20190;-40
2024/01/14 07:19:26;;;;;;;8.23;1.77;;;;;;;1.27;100.00;100191.41;4956250;28;20561;-42
2024/01/14 07:21:51;;;;;;;10.60;1.92;;;;;;;1.33;100.00;100194.84;4978773;28;20186;-42
2024/01/14 07:24:17;;;;;;;15.63;1.92;;;;;;;1.21;100.00;100195.00;4979496;28;20226;-44
2024/01/14 07:26:43;;;;;;;9.13;1.60;;;;;;;1.19;100.00;100194.13;4975161;28;20186;-41
2024/01/14 07:29:08;;;;;;;9.63;1.65;;;;;;;1.19;100.00;100187.06;4965517;28;20350;-42
2024/01/14 07:31:34;;;;;;;9.15;1.65;;;;;;;1.21;100.00;100193.22;4972134;28;20224;-41
2024/01/14 07:33:59;;;;;;;17.10;2.50;;;;;;;1.10;100.00;100197.72;4973492;28;20675;-43
2024/01/14 07:36:25;;;;;;;19.98;2.28;;;;;;;1.16;100.00;100195.03;4954645;28;20366;-45
2024/01/14 07:38:51;;;;;;;15.48;2.63;;;;;;;1.13;100.00;100202.97;4969195;28;20177;-41
2024/01/14 07:41:17;;;;;;;8.27;1.92;;;;;;;1.17;100.00;100204.69;4983273;28;20693;-41
2024/01/14 07:43:43;;;;;;;10.10;1.63;;;;;;;1.17;100.00;100206.47;4969751;28;20191;-41
2024/01/14 07:46:09;;;;;;;10.75;3.47;;;;;;;1.22;100.00;100208.19;4971193;28;20331;-43
2024/01/14 07:48:35;;;;;;;16.42;3.92;;;;;;;1.23;100.00;100204.63;4982597;28;20227;-41
2024/01/14 07:51:02;;;;;;;12.68;2.97;;;;;;;1.22;100.00;100192.34;4971311;28;20210;-42
2024/01/14 07:53:28;;;;;;;20.13;2.20;;;;;;;1.20;100.00;100196.75;4971938;28;20662;-43
2024/01/14 07:55:53;;;;;;;9.15;1.77;;;;;;;1.24;100.00;100205.50;4965899;28;20285;-41
2024/01/14 07:58:19;;;;;;;17.13;2.05;;;;;;;1.25;100.00;100191.44;4966531;28;20230;-42
2024/01/14 08:00:44;;;;;;;11.45;1.92;;;;;;;1.27;100.00;100199.31;4976327;28;20307;-43
2024/01/14 08:03:10;;;;;;;9.82;1.80;;;;;;;1.28;100.00;100191.38;4948707;28;20182;-41
2024/01/14 08:05:38;;;;;;;11.10;2.17;;;;;;;1.30;100.00;100189.59;4965521;28;20552;-42
2024/01/14 08:08:07;;;;;;;14.15;2.25;;;;;;;1.38;100.00;100187.75;4977157;28;20280;-44
2024/01/14 08:10:33;;;;;;;9.02;1.70;;;;;;;1.37;100.00;100193.91;4970265;28;20210;-43
2024/01/14 08:12:58;;;;;;;12.25;1.88;;;;;;;1.34;100.00;100186.03;4970025;28;20630;-41
2024/01/14 08:15:24;;;;;;;15.13;2.25;;;;;;;1.46;100.00;100187.66;4971180;28;20245;-43
2024/01/14 08:17:50;;;;;;;10.52;1.92;;;;;;;1.42;100.00;100192.13;4962032;28;20806;-45
2024/01/14 08:20:15;;;;;;;18.60;1.88;;;;;;;1.50;100.00;100189.38;4969180;28;20269;-41
2024/01/14 08:22:41;;;;;;;16.27;2.15;;;;;;;1.47;100.00;100192.06;4967509;28;20196;-42
2024/01/14 08:25:10;;;;;;;9.52;1.70;;;;;;;1.51;100.00;100192.88;4969118;28;20221;-43
2024/01/14 08:27:40;;;;;;;11.30;1.80;;;;;;;1.50;100.00;100197.31;4971444;28;20185;-42
2024/01/14 08:30:07;;;;;;;7.68;1.98;;;;;;;1.61;100.00;100187.47;4969025;28;20205;-42
2024/01/14 08:32:33;;;;;;;11.35;2.15;;;;;;;1.59;100.00;100188.41;4970051;28;20605;-43
2024/01/14 08:34:59;;;;;;;11.98;2.15;;;;;;;1.57;100.00;100180.50;4969461;28;20585;-42
2024/01/14 08:37:27;;;;;;;6.40;2.15;;;;;;;1.70;100.00;100181.22;4978053;28;20186;-43
2024/01/14 08:39:53;;;;;;;9.05;1.77;;;;;;;1.65;100.00;100178.63;4963546;28;20232;-41
2024/01/14 08:42:19;;;;;;;7.82;1.35;;;;;;;1.73;100.00;100189.13;4970653;28;20509;-44
2024/01/14 08:44:44;;;;;;;10.75;1.98;;;;;;;1.71;100.00;100187.41;4965285;28;20332;-41
2024/01/14 08:47:10;;;;;;;13.50;1.92;;;;;;;1.70;100.00;100190.91;4969270;28;20186;-41
2024/01/14 08:49:36;;;;;;;9.23;2.13;;;;;;;1.79;100.00;100190.78;4956781;28;20665;-44
2024/01/14 08:52:01;;;;;;;11.70;1.35;;;;;;;1.78;100.00;100182.00;4959237;28;20332;-41
2024/01/14 08:54:36;;;;;;;14.40;1.70;;;;;;;1.80;100.00;100180.22;4965296;28;20213;-40
2024/01/14 08:57:01;;;;;;;11.75;2.38;;;;;;;1.81;100.00;100175.81;4959625;28;20173;-42
2024/01/14 08:59:27;;;;;;;12.88;1.80;;;;;;;1.86;100.00;100174.00;4973051;28;20196;-40
2024/01/14 09:01:52;;;;;;;12.55;2.38;;;;;;;1.92;100.00;100180.94;4967154;28;20233;-43
2024/01/14 09:04:18;;;;;;;12.95;2.00;;;;;;;1.91;100.00;100182.72;4972518;28;20261;-43
2024/01/14 09:06:44;;;;;;;14.77;2.13;;;;;;;1.94;100.00;100180.03;4964470;28;20185;-43
2024/01/14 09:09:10;;;;;;;13.60;2.15;;;;;;;2.03;100.00;100179.94;4965776;28;20179;-43
2024/01/14 09:11:36;;;;;;;10.90;1.95;;;;;;;2.04;100.00;100178.16;4974502;28;20480;-44
2024/01/14 09:14:01;;;;;;;15.90;2.03;;;;;;;2.14;100.00;100174.47;4956800;28;20320;-41
2024/01/14 09:16:27;;;;;;;9.60;1.60;;;;;;;2.12;100.00;100175.38;4966493;28;20187;-42
2024/01/14 09:18:52;;;;;;;16.15;2.53;;;;;;;2.19;100.00;100172.66;4947396;28;20182;-41
2024/01/14 09:21:18;;;;;;;15.38;1.85;;;;;;;2.19;100.00;100171.78;4969336;28;20523;-42
2024/01/14 09:23:44;;;;;;;12.95;2.00;;;;;;;2.23;100.00;100160.25;4962717;28;20198;-45
2024/01/14 09:26:09;;;;;;;12.82;2.38;;;;;;;2.29;100.00;100172.50;4970019;28;20705;-42
2024/01/14 09:28:36;;;;;;;13.95;2.00;;;;;;;2.44;100.00;100166.97;4964474;28;20241;-43
2024/01/14 09:31:05;;;;;;;7.32;1.50;;;;;;;2.50;100.00;100166.88;4970535;28;20276;-41
2024/01/14 09:33:32;;;;;;;12.93;2.85;;;;;;;2.46;100.00;100168.69;4975335;28;20221;-42
2024/01/14 09:36:05;;;;;;;10.55;2.30;;;;;;;2.44;100.00;100153.75;4966217;28;20640;-42
2024/01/14 09:38:31;;;;;;;11.73;2.00;;;;;;;2.31;100.00;100161.00;4964842;28;20318;-42
2024/01/14 09:41:02;;;;;;;13.40;1.80;;;;;;;2.33;100.00;100161.00;4964280;28;20204;-41
2024/01/14 09:43:32;;;;;;;5.07;1.23;;;;;;;2.32;100.00;100156.59;4963714;28;20189;-43
2024/01/14 09:45:58;;;;;;;12.63;1.85;;;;;;;2.57;100.00;100151.78;4968633;28;20224;-44
2024/01/14 09:48:23;;;;;;;9.95;1.85;;;;;;;2.61;100.00;100158.78;4970271;28;20178;-40
2024/01/14 09:50:51;;;;;;;10.75;2.45;;;;;;;2.60;100.00;100150.00;4966458;28;20210;-42
2024/01/14 09:53:19;;;;;;;8.52;1.65;;;;;;;2.60;100.00;100141.16;4973423;28;20202;-42
2024/01/14 09:55:48;;;;;;;8.90;1.95;;;;;;;2.79;100.00;100134.66;4952312;28;20213;-42
2024/01/14 09:58:14;;;;;;;13.30;1.80;;;;;;;3.08;100.00;100136.78;4976091;28;20403;-42
2024/01/14 10:00:40;;;;;;;9.18;1.35;;;;;;;2.98;100.00;100142.28;4970000;28;20630;-42
2024/01/14 10:03:06;;;;;;;10.80;1.85;;;;;;;2.87;100.00;100143.34;4962768;28;20182;-42
2024/01/14 10:05:34;;;;;;;5.40;1.13;;;;;;;2.84;100.00;100124.88;4977279;28;20216;-44
2024/01/14 10:08:00;;;;;;;14.77;2.47;;;;;;;3.03;100.00;100119.25;4966402;28;20310;-42
2024/01/14 10:10:28;;;;;;;11.80;2.22;;;;;;;3.02;100.00;100122.81;4980830;28;20672;-42
2024/01/14 10:12:54;;;;;;;14.82;1.45;;;;;;;2.96;100.00;100102.59;4972680;28;20182;-42
2024/01/14 10:15:20;;;;;;;8.52;2.00;;;;;;;2.96;100.00;100107.91;4971983;28;20210;-41
2024/01/14 10:17:46;;;;;;;7.47;1.40;;;;;;;2.99;100.00;100096.38;4975296;28;20193;-42
2024/01/14 10:20:12;;;;;;;4.22;1.10;;;;;;;2.85;100.00;100097.50;4970582;28;20306;-43
2024/01/14 10:22:42;;;;;;;7.70;1.40;;;;;;;2.94;100.00;100092.97;4966893;28;20620;-41
2024/01/14 10:25:08;;;;;;;6.28;1.70;;;;;;;3.01;100.00;100078.69;4970044;28;20218;-42
2024/01/14 10:27:33;;;;;;;13.65;1.90;;;;;;;3.05;100.00;100075.09;4963191;28;20184;-41
2024/01/14 10:29:59;;;;;;;16.30;2.28;;;;;;;3.06;100.00;100074.19;4963174;28;20198;-43
2024/01/14 10:32:24;;;;;;;7.15;1.50;;;;;;;3.15;100.00;100059.88;4974548;28;20211;-41
2024/01/14 10:34:52;;;;;;;10.05;1.50;;;;;;;3.11;100.00;100051.16;4973737;28;20197;-42
2024/01/14 10:37:22;;;;;;;7.38;1.20;;;;;;;2.88;100.00;100063.06;4972974;28;20218;-42
2024/01/14 10:39:50;;;;;;;10.90;1.70;;;;;;;2.71;100.00;100054.56;4978221;28;20542;-41
2024/01/14 10:42:16;;;;;;;7.60;1.50;;;;;;;2.71;100.00;100056.34;4965069;28;20260;-43
2024/01/14 10:44:41;;;;;;;9.38;1.65;;;;;;;2.61;100.00;100059.16;4981568;28;20285;-42
2024/01/14 10:47:10;;;;;;;10.35;1.77;;;;;;;2.67;100.00;100068.78;4968551;28;20208;-41
2024/01/14 10:49:41;;;;;;;5.47;1.35;;;;;;;2.63;100.00;100061.78;4967492;28;20546;-43
2024/01/14 10:52:10;;;;;;;10.57;1.73;;;;;;;2.58;100.00;100061.88;4969827;28;20202;-42
2024/01/14 10:54:51;;;;;;;11.52;2.00;;;;;;;2.69;100.00;100061.69;4974220;28;20198;-42
2024/01/14 10:57:37;;;;;;;7.70;1.73;;;;;;;2.75;100.00;100056.25;4977141;28;20280;-43
2024/01/14 11:00:05;;;;;;;5.10;1.63;;;;;;;2.84;100.00;100055.19;4966936;28;20245;-43
2024/01/14 11:02:32;;;;;;;10.77;1.55;;;;;;;2.95;100.00;100047.97;4970913;28;20169;-41
2024/01/14 11:04:58;;;;;;;15.70;1.42;;;;;;;3.04;100.00;100042.47;4972625;28;20386;-43
2024/01/14 11:07:24;;;;;;;9.63;1.85;;;;;;;3.07;100.00;100023.88;4970859;28;20685;-43
2024/01/14 11:09:52;;;;;;;10.93;1.70;;;;;;;3.05;100.00;100027.47;4964214;28;20555;-43
2024/01/14 11:12:29;;;;;;;6.55;1.60;;;;;;;3.18;100.00;100014.84;4976386;28;20198;-43
2024/01/14 11:15:06;;;;;;;15.13;1.77;;;;;;;3.07;100.00;100017.72;4961779;28;20205;-41